Time;durP1;ratioP1;P1;durP2;ratioP2;P2;SDS_P1;SDS_P2;PMS_P1;PMS_P2;Temp;Humidity;BMP_temperature;BMP_pressure;BME280_temperature;BME280_humidity;BME280_pressure;Samples;Min_cycle;Max_cycle;Signal;HPM_P1;HPM_P2
2024/03/10 00:00:24;;;;;;;33.20;23.80;;;;;;;10.23;49.88;102006.02;107121;1263;23910;-55
2024/03/10 00:02:51;;;;;;;37.10;24.00;;;;;;;10.21;49.94;102005.33;106281;1265;1003578;-55
2024/03/10 00:05:20;;;;;;;32.90;24.20;;;;;;;10.20;49.96;102003.61;106657;1267;25415;-56
2024/03/10 00:07:47;;;;;;;32.90;22.70;;;;;;;10.18;50.04;102002.91;106998;1266;24009;-57
2024/03/10 00:10:17;;;;;;;32.80;23.00;;;;;;;10.16;49.97;102003.60;107088;1265;25546;-55
2024/03/10 00:12:48;;;;;;;31.30;23.00;;;;;;;10.15;50.02;102004.13;107107;1261;25348;-55
2024/03/10 00:15:16;;;;;;;32.60;23.90;;;;;;;10.13;50.08;102006.73;107068;1256;22633;-55
2024/03/10 00:17:44;;;;;;;33.60;23.50;;;;;;;10.12;50.15;102004.48;106853;1259;25372;-56
2024/03/10 00:20:12;;;;;;;34.20;22.90;;;;;;;10.12;50.08;102005.69;106844;1272;22761;-55
2024/03/10 00:22:42;;;;;;;31.90;23.00;;;;;;;10.11;50.11;102006.20;106836;1260;25351;-56
2024/03/10 00:25:13;;;;;;;36.10;24.00;;;;;;;10.11;50.09;102005.52;107067;1265;25290;-55
2024/03/10 00:27:41;;;;;;;35.60;23.40;;;;;;;10.09;50.22;102003.92;107101;1256;25508;-56
2024/03/10 00:30:09;;;;;;;29.70;23.20;;;;;;;10.09;50.28;102000.45;107080;1265;25379;-56
2024/03/10 00:32:37;;;;;;;32.20;23.80;;;;;;;10.09;50.25;101999.41;107046;1265;25354;-55
2024/03/10 00:35:05;;;;;;;31.50;21.90;;;;;;;10.09;50.15;101999.40;106998;1257;25379;-56
2024/03/10 00:37:33;;;;;;;33.00;23.80;;;;;;;10.08;50.17;101999.58;106803;1257;22729;-56
2024/03/10 00:39:59;;;;;;;30.20;22.80;;;;;;;10.07;50.11;101995.08;106989;1256;25263;-56
2024/03/10 00:42:27;;;;;;;34.40;24.00;;;;;;;10.06;50.22;101994.03;106740;1272;25379;-55
2024/03/10 00:44:54;;;;;;;28.00;22.50;;;;;;;10.05;50.21;101993.16;106802;1259;25800;-56
2024/03/10 00:47:21;;;;;;;29.70;22.70;;;;;;;10.03;50.32;101991.61;106774;1263;22645;-56
2024/03/10 00:49:49;;;;;;;31.30;21.70;;;;;;;10.02;50.25;101993.34;106910;1259;25386;-55
2024/03/10 00:52:16;;;;;;;31.80;21.80;;;;;;;10.01;50.16;101992.11;106834;1269;25391;-56
2024/03/10 00:54:43;;;;;;;31.30;21.20;;;;;;;10.01;50.23;101992.82;107084;1252;25411;-56
2024/03/10 00:57:10;;;;;;;32.40;22.60;;;;;;;10.00;50.19;101991.08;106934;1260;25338;-56
2024/03/10 00:59:37;;;;;;;32.20;22.20;;;;;;;9.90;50.60;101988.48;107124;1256;25414;-56
2024/03/10 01:02:05;;;;;;;31.00;21.60;;;;;;;9.82;50.77;101986.21;106101;1258;1003807;-56
2024/03/10 01:04:33;;;;;;;30.60;22.50;;;;;;;9.80;50.68;101988.64;106985;1261;25364;-56
2024/03/10 01:07:00;;;;;;;32.40;23.10;;;;;;;9.78;50.85;101984.33;107101;1259;25345;-56
2024/03/10 01:09:29;;;;;;;27.60;21.60;;;;;;;9.77;50.76;101986.58;107128;1254;24350;-55
2024/03/10 01:11:56;;;;;;;30.40;21.90;;;;;;;9.80;50.74;101984.14;107114;1259;25434;-56
2024/03/10 01:14:23;;;;;;;31.10;21.50;;;;;;;9.89;50.64;101980.85;106888;1257;25428;-55
2024/03/10 01:16:50;;;;;;;29.40;21.30;;;;;;;9.89;50.52;101980.68;106901;1261;25365;-56
2024/03/10 01:19:17;;;;;;;27.80;20.80;;;;;;;9.88;50.41;101979.98;107033;1261;25503;-55
2024/03/10 01:21:47;;;;;;;27.40;20.80;;;;;;;9.86;50.36;101978.41;107085;1267;25469;-56
2024/03/10 01:24:14;;;;;;;28.30;20.80;;;;;;;9.80;50.57;101982.06;106089;1261;1002947;-55
2024/03/10 01:26:41;;;;;;;28.70;20.60;;;;;;;9.70;50.78;101984.65;107156;1259;25431;-56
2024/03/10 01:29:08;;;;;;;26.60;19.70;;;;;;;9.67;51.00;101983.09;106818;1259;25371;-56
2024/03/10 01:31:35;;;;;;;28.80;21.50;;;;;;;9.66;50.90;101987.94;106829;1261;22540;-56
2024/03/10 01:34:02;;;;;;;27.90;20.70;;;;;;;9.66;50.81;101988.46;107181;1260;25428;-56
2024/03/10 01:36:30;;;;;;;27.40;20.90;;;;;;;9.65;50.83;101987.07;106794;1261;22536;-56
2024/03/10 01:38:57;;;;;;;27.70;20.50;;;;;;;9.64;50.68;101989.48;107113;1264;25379;-56
2024/03/10 01:41:25;;;;;;;27.70;20.90;;;;;;;9.63;50.79;101987.75;106885;1259;25383;-56
2024/03/10 01:43:53;;;;;;;31.90;23.10;;;;;;;9.63;50.81;101988.61;106802;1259;25379;-56
2024/03/10 01:46:24;;;;;;;30.80;20.70;;;;;;;9.62;50.87;101993.64;107057;1264;24224;-56
2024/03/10 01:48:51;;;;;;;31.00;21.10;;;;;;;9.61;50.84;101997.97;106856;1259;25498;-56
2024/03/10 01:51:18;;;;;;;30.50;22.00;;;;;;;9.60;50.80;101998.14;106164;1257;1002946;-56
2024/03/10 01:53:45;;;;;;;29.30;21.10;;;;;;;9.58;50.68;101995.89;106996;1266;22528;-56
2024/03/10 01:56:13;;;;;;;28.60;20.90;;;;;;;9.50;50.85;101994.65;106161;1262;1003456;-57
2024/03/10 01:58:44;;;;;;;28.60;21.80;;;;;;;9.40;50.83;101996.19;106384;1259;1003508;-56
2024/03/10 02:01:13;;;;;;;27.30;20.30;;;;;;;9.29;50.92;101988.55;106865;1263;24209;-56
2024/03/10 02:03:42;;;;;;;30.30;20.70;;;;;;;9.22;51.11;101991.29;106268;1256;1002835;-56
2024/03/10 02:06:09;;;;;;;33.10;21.20;;;;;;;9.16;51.22;101989.88;107226;1265;24210;-57
2024/03/10 02:08:37;;;;;;;28.20;20.00;;;;;;;9.14;51.26;101983.64;106673;1256;580739;-56
2024/03/10 02:11:06;;;;;;;25.40;19.70;;;;;;;9.16;51.27;101982.43;106728;1261;25463;-56
2024/03/10 02:13:33;;;;;;;25.20;20.10;;;;;;;9.19;51.27;101978.98;106158;1274;1002959;-56
2024/03/10 02:16:02;;;;;;;27.90;19.70;;;;;;;9.20;51.22;101978.46;107063;1256;25379;-56
2024/03/10 02:18:30;;;;;;;27.40;20.00;;;;;;;9.22;51.06;101976.40;106406;1269;1003768;-56
2024/03/10 02:20:58;;;;;;;29.30;19.60;;;;;;;9.24;51.09;101976.05;106352;1256;1003096;-55
2024/03/10 02:23:32;;;;;;;25.50;19.10;;;;;;;9.25;51.06;101981.61;107177;1256;25344;-55
2024/03/10 02:25:59;;;;;;;28.70;20.80;;;;;;;9.26;51.26;101980.04;106876;1257;25344;-55
2024/03/10 02:28:46;;;;;;;30.70;19.90;;;;;;;9.27;51.21;101977.98;106880;1268;25501;-55
2024/03/10 02:47:46;;;;;;;27.80;20.30;;;;;;;9.22;51.25;101979.01;106987;1265;25369;-55
2024/03/10 02:50:14;;;;;;;22.70;18.30;;;;;;;9.21;50.75;101977.60;106794;1274;25354;-55
2024/03/10 02:52:41;;;;;;;29.10;19.50;;;;;;;9.19;50.64;101971.36;107108;1254;25341;-55
2024/03/10 02:55:11;;;;;;;30.30;20.90;;;;;;;9.18;50.59;101968.77;106316;1267;1002989;-56
2024/03/10 02:57:38;;;;;;;26.90;19.60;;;;;;;9.16;50.64;101970.14;107094;1265;25366;-56
2024/03/10 03:00:12;;;;;;;27.30;20.20;;;;;;;9.16;50.66;101968.77;107129;1253;25366;-56
2024/03/10 03:02:39;;;;;;;25.00;19.60;;;;;;;9.15;50.59;101968.58;107130;1256;22612;-56
2024/03/10 03:05:07;;;;;;;25.60;19.30;;;;;;;9.12;50.78;101967.20;106823;1273;22524;-56
2024/03/10 03:07:34;;;;;;;25.00;19.60;;;;;;;9.04;50.73;101966.99;107061;1255;24199;-56
2024/03/10 03:10:01;;;;;;;26.60;19.30;;;;;;;8.98;50.89;101969.04;106348;1256;1003692;-55
2024/03/10 03:12:28;;;;;;;24.10;19.00;;;;;;;9.01;50.94;101961.77;107141;1256;25332;-56
2024/03/10 03:14:55;;;;;;;26.60;19.70;;;;;;;8.95;51.04;101958.65;106855;1259;25331;-56
2024/03/10 03:17:24;;;;;;;23.40;18.10;;;;;;;8.93;51.07;101961.76;106970;1266;24224;-56
2024/03/10 03:19:51;;;;;;;26.90;19.30;;;;;;;8.86;51.12;101965.36;107018;1266;25356;-56
2024/03/10 03:22:18;;;;;;;25.10;18.90;;;;;;;8.93;50.67;101968.32;107160;1266;25491;-56
2024/03/10 03:24:45;;;;;;;23.20;18.10;;;;;;;8.93;50.48;101963.14;107093;1256;25359;-56
2024/03/10 03:27:11;;;;;;;24.10;17.60;;;;;;;8.92;50.38;101966.42;107099;1264;22741;-56
2024/03/10 03:29:38;;;;;;;21.90;17.40;;;;;;;8.87;50.40;101964.84;106247;1257;1003828;-56
2024/03/10 03:32:05;;;;;;;18.60;15.50;;;;;;;8.77;50.83;101964.44;107126;1266;25369;-56
2024/03/10 03:34:33;;;;;;;15.80;14.10;;;;;;;8.64;51.08;101961.09;106914;1259;25492;-56
2024/03/10 03:37:00;;;;;;;15.10;13.50;;;;;;;8.57;51.26;101959.84;106808;1261;22530;-55
2024/03/10 03:39:27;;;;;;;14.70;12.70;;;;;;;8.53;51.36;101962.41;106272;1270;1003179;-56
2024/03/10 03:41:54;;;;;;;14.20;12.10;;;;;;;8.53;51.52;101962.23;107042;1257;25359;-56
2024/03/10 03:44:21;;;;;;;12.50;11.30;;;;;;;8.53;51.50;101960.17;106904;1262;25370;-56
2024/03/10 03:46:49;;;;;;;12.40;10.80;;;;;;;8.53;51.41;101959.98;106901;1274;25375;-56
2024/03/10 03:49:16;;;;;;;11.40;10.20;;;;;;;8.53;51.54;101957.73;107155;1267;25341;-56
2024/03/10 03:51:43;;;;;;;12.90;10.20;;;;;;;8.49;51.49;101957.54;107090;1259;25418;-56
2024/03/10 03:54:10;;;;;;;10.40;9.40;;;;;;;8.45;51.55;101955.63;106994;1264;25359;-56
2024/03/10 03:56:37;;;;;;;12.60;10.00;;;;;;;8.43;51.67;101959.92;106874;1267;25359;-56
2024/03/10 03:59:04;;;;;;;13.90;10.80;;;;;;;8.43;51.67;101964.95;106795;1262;25443;-56
2024/03/10 04:01:34;;;;;;;11.30;10.20;;;;;;;8.43;51.69;101966.86;106051;1271;1003243;-56
2024/03/10 04:04:01;;;;;;;10.70;9.10;;;;;;;8.45;51.62;101969.45;106770;1273;24242;-56
2024/03/10 04:06:28;;;;;;;9.00;8.20;;;;;;;8.46;51.53;101968.25;107089;1259;25448;-56
2024/03/10 04:08:55;;;;;;;8.30;7.50;;;;;;;8.48;51.32;101967.21;107110;1257;25369;-56
2024/03/10 04:11:25;;;;;;;8.30;7.50;;;;;;;8.49;51.36;101966.20;106788;1266;25331;-56
2024/03/10 04:13:53;;;;;;;9.30;8.30;;;;;;;8.50;51.30;101969.83;106693;1251;1002477;-57
2024/03/10 04:16:20;;;;;;;8.80;7.80;;;;;;;8.50;51.57;101977.09;106729;1273;25333;-56
2024/03/10 04:18:47;;;;;;;11.00;8.30;;;;;;;8.50;51.48;101979.88;107044;1259;25414;-57
2024/03/10 04:21:17;;;;;;;8.20;7.40;;;;;;;8.51;51.44;101984.02;107115;1265;25431;-56
2024/03/10 04:23:43;;;;;;;9.20;8.20;;;;;;;8.52;51.45;101980.39;106915;1260;22542;-56
2024/03/10 04:26:11;;;;;;;17.50;8.00;;;;;;;8.53;51.30;101980.41;106769;1275;25375;-56
2024/03/10 04:28:38;;;;;;;8.10;7.30;;;;;;;8.52;51.28;101983.34;106918;1264;25351;-56
2024/03/10 04:31:05;;;;;;;9.10;7.80;;;;;;;8.53;51.07;101986.11;106189;1268;1003467;-56
2024/03/10 04:33:33;;;;;;;9.50;7.80;;;;;;;8.52;51.12;101982.30;106799;1268;25363;-56
2024/03/10 04:36:00;;;;;;;9.90;7.60;;;;;;;8.52;50.95;101989.55;107073;1256;22526;-55
2024/03/10 04:38:28;;;;;;;11.40;7.30;;;;;;;8.51;50.97;101995.09;107140;1259;23371;-57
2024/03/10 04:40:55;;;;;;;8.40;7.20;;;;;;;8.49;50.79;101996.29;107128;1263;25466;-56
2024/03/10 04:43:23;;;;;;;8.40;7.60;;;;;;;8.48;50.68;101995.92;107119;1267;25330;-56
2024/03/10 04:45:53;;;;;;;11.30;7.10;;;;;;;8.45;50.83;101996.60;107035;1257;25456;-57
2024/03/10 04:48:20;;;;;;;7.00;6.30;;;;;;;8.43;50.72;102003.52;107034;1263;25357;-56
2024/03/10 04:50:48;;;;;;;8.60;7.20;;;;;;;8.41;50.76;102003.34;107088;1267;25376;-56
2024/03/10 04:53:15;;;;;;;7.20;6.50;;;;;;;8.39;50.65;102007.63;106455;1256;1003021;-56
2024/03/10 04:55:43;;;;;;;10.70;6.40;;;;;;;8.39;50.63;102013.51;107149;1256;25300;-56
2024/03/10 04:58:11;;;;;;;10.50;6.30;;;;;;;8.39;50.62;102012.48;107027;1271;25428;-56
2024/03/10 05:00:39;;;;;;;6.30;5.80;;;;;;;8.38;50.64;102014.53;107007;1255;25433;-56
2024/03/10 05:03:06;;;;;;;10.30;7.10;;;;;;;8.37;50.84;102016.24;106180;1264;1003594;-56
2024/03/10 05:05:33;;;;;;;7.40;6.70;;;;;;;8.37;51.02;102017.80;106094;1269;1002970;-56
2024/03/10 05:08:01;;;;;;;9.80;6.50;;;;;;;8.37;50.95;102017.63;107127;1265;25341;-56
2024/03/10 05:10:28;;;;;;;9.00;7.70;;;;;;;8.39;51.23;102017.14;107113;1264;25369;-57
2024/03/10 05:12:56;;;;;;;6.60;6.00;;;;;;;8.40;51.13;102021.65;106946;1260;25370;-56
2024/03/10 05:15:23;;;;;;;10.30;7.40;;;;;;;8.40;51.21;102023.38;106810;1260;25467;-57
2024/03/10 05:17:50;;;;;;;7.90;7.20;;;;;;;8.41;51.18;102026.84;106992;1265;25331;-56
2024/03/10 05:20:18;;;;;;;12.50;7.70;;;;;;;8.44;51.16;102031.71;107078;1266;25379;-56
2024/03/10 05:22:45;;;;;;;8.80;8.00;;;;;;;8.46;51.32;102032.92;107266;1256;25498;-56
2024/03/10 05:25:13;;;;;;;9.10;8.30;;;;;;;8.50;51.30;102036.25;107037;1263;25354;-56
2024/03/10 05:27:43;;;;;;;8.30;7.50;;;;;;;8.53;51.16;102032.98;107186;1267;25428;-56
2024/03/10 05:30:11;;;;;;;10.50;8.20;;;;;;;8.56;51.29;102037.32;107106;1266;25416;-56
2024/03/10 05:32:38;;;;;;;9.20;8.30;;;;;;;8.59;51.24;102039.25;106891;1269;22539;-57
2024/03/10 05:35:09;;;;;;;8.90;7.50;;;;;;;8.63;51.07;102035.29;106944;1256;22659;-56
2024/03/10 05:37:36;;;;;;;8.30;7.40;;;;;;;8.67;51.07;102036.17;107108;1257;24210;-56
2024/03/10 05:40:06;;;;;;;9.70;8.40;;;;;;;8.69;51.27;102036.20;107054;1267;25351;-56
2024/03/10 05:42:33;;;;;;;9.40;8.50;;;;;;;8.72;50.96;102038.11;107179;1262;22910;-56
2024/03/10 05:45:02;;;;;;;9.00;8.10;;;;;;;8.76;50.98;102039.87;107060;1267;25381;-56
2024/03/10 05:47:30;;;;;;;10.80;8.60;;;;;;;8.80;51.26;102038.69;107006;1257;22522;-55
2024/03/10 05:49:57;;;;;;;8.70;7.90;;;;;;;8.85;51.21;102041.32;107091;1266;25447;-56
2024/03/10 05:52:24;;;;;;;8.60;7.80;;;;;;;8.90;51.47;102044.80;107120;1261;25412;-56
2024/03/10 05:54:51;;;;;;;12.80;8.20;;;;;;;8.95;51.60;102052.45;107043;1262;25428;-56
2024/03/10 05:57:18;;;;;;;14.30;8.20;;;;;;;9.01;51.53;102060.27;107144;1256;25351;-56
2024/03/10 05:59:45;;;;;;;10.70;8.90;;;;;;;9.06;51.45;102061.33;107112;1263;25404;-56
2024/03/10 06:02:16;;;;;;;15.20;8.30;;;;;;;9.10;51.52;102064.48;107011;1257;25330;-56
2024/03/10 06:04:44;;;;;;;8.10;7.30;;;;;;;9.16;51.93;102067.95;107065;1253;25343;-57
2024/03/10 06:07:11;;;;;;;7.60;6.90;;;;;;;9.23;52.09;102075.10;107144;1260;24311;-56
2024/03/10 06:09:39;;;;;;;9.40;6.60;;;;;;;9.30;52.27;102081.71;106779;1271;25365;-57
2024/03/10 06:12:09;;;;;;;8.20;7.40;;;;;;;9.36;52.27;102085.20;107009;1264;25341;-56
2024/03/10 06:14:37;;;;;;;7.70;6.80;;;;;;;9.42;52.24;102089.03;106968;1267;25340;-56
2024/03/10 06:17:05;;;;;;;6.60;6.00;;;;;;;9.46;52.19;102084.89;107015;1270;25396;-56
2024/03/10 06:25:25;;;;;;;11.50;7.10;;;;;;;9.62;52.24;102084.08;106859;1264;25369;-57
2024/03/10 06:27:52;;;;;;;7.90;7.10;;;;;;;9.67;52.05;102087.05;107075;1260;25429;-56
2024/03/10 06:30:19;;;;;;;13.00;6.30;;;;;;;9.72;52.00;102089.66;107094;1267;25481;-56
2024/03/10 06:32:49;;;;;;;8.10;6.40;;;;;;;9.75;52.06;102085.69;107021;1267;23272;-56
2024/03/10 06:35:16;;;;;;;7.10;6.30;;;;;;;9.80;51.89;102088.98;107055;1264;25388;-56
2024/03/10 06:37:44;;;;;;;9.30;7.00;;;;;;;9.83;51.78;102086.58;106977;1260;25498;-56
2024/03/10 06:40:12;;;;;;;9.30;6.20;;;;;;;9.88;51.95;102087.96;107076;1267;25369;-56
2024/03/10 06:42:39;;;;;;;8.90;6.30;;;;;;;9.95;52.13;102084.86;107019;1261;25804;-56
2024/03/10 06:45:09;;;;;;;9.00;6.10;;;;;;;10.03;52.33;102083.31;106334;1269;1003158;-56
2024/03/10 06:47:38;;;;;;;11.80;6.30;;;;;;;10.13;52.59;102084.73;106827;1274;25480;-56
2024/03/10 06:50:06;;;;;;;9.70;6.90;;;;;;;10.23;52.59;102085.80;106040;1274;1016066;-56
2024/03/10 06:52:33;;;;;;;8.70;6.70;;;;;;;10.34;52.66;102087.20;107115;1263;22517;-56
2024/03/10 06:55:00;;;;;;;7.00;6.30;;;;;;;10.44;52.48;102088.06;107004;1264;25425;-56
2024/03/10 06:57:28;;;;;;;9.10;6.90;;;;;;;10.53;52.44;102085.27;106787;1269;25376;-56
2024/03/10 06:59:58;;;;;;;11.40;5.80;;;;;;;10.63;52.53;102084.59;106369;1266;1003124;-56
2024/03/10 07:02:26;;;;;;;13.80;5.70;;;;;;;10.73;52.37;102082.33;107072;1261;22620;-56
2024/03/10 07:04:55;;;;;;;6.40;5.80;;;;;;;10.83;52.23;102080.38;107117;1267;25341;-56
2024/03/10 07:07:24;;;;;;;7.40;5.80;;;;;;;10.91;51.97;102082.80;106835;1270;25344;-56
2024/03/10 07:09:51;;;;;;;7.90;6.20;;;;;;;10.99;52.07;102081.58;107093;1254;25417;-56
2024/03/10 07:12:18;;;;;;;6.80;5.90;;;;;;;11.10;51.96;102084.85;106964;1264;25372;-56
2024/03/10 07:14:45;;;;;;;13.60;6.00;;;;;;;11.19;51.86;102082.21;107164;1264;25365;-56
2024/03/10 07:17:15;;;;;;;6.30;5.60;;;;;;;11.29;51.60;102088.25;107069;1257;25402;-56
2024/03/10 07:19:43;;;;;;;8.10;6.30;;;;;;;11.39;51.52;102085.79;107063;1264;25341;-56
2024/03/10 07:22:10;;;;;;;15.20;6.70;;;;;;;11.49;51.48;102083.66;107083;1267;25351;-56
2024/03/10 07:24:37;;;;;;;6.80;6.10;;;;;;;11.59;51.01;102081.52;107037;1264;25344;-56
2024/03/10 07:27:05;;;;;;;7.50;6.40;;;;;;;11.67;50.59;102079.95;107116;1264;25370;-57
2024/03/10 07:29:33;;;;;;;6.40;5.70;;;;;;;11.74;50.73;102079.04;106848;1264;25423;-56
2024/03/10 07:32:00;;;;;;;7.10;6.40;;;;;;;11.82;50.77;102078.30;107064;1257;25401;-56
2024/03/10 07:34:28;;;;;;;10.00;6.20;;;;;;;11.91;50.63;102078.61;107153;1255;25351;-56
2024/03/10 07:36:55;;;;;;;8.60;6.20;;;;;;;12.00;50.35;102072.45;107073;1254;25539;-56
2024/03/10 07:39:23;;;;;;;6.50;5.80;;;;;;;12.07;49.87;102066.48;106804;1258;22528;-57
2024/03/10 07:41:49;;;;;;;10.20;6.80;;;;;;;12.13;49.81;102060.71;107115;1253;22520;-56
2024/03/10 07:44:17;;;;;;;7.90;6.60;;;;;;;12.19;49.81;102061.88;107041;1267;25497;-56
2024/03/10 07:46:44;;;;;;;7.00;6.20;;;;;;;12.24;49.49;102057.49;107044;1260;26510;-56
2024/03/10 07:49:11;;;;;;;7.10;6.40;;;;;;;12.30;49.22;102058.48;106020;1275;1003243;-56
2024/03/10 07:51:38;;;;;;;6.50;5.90;;;;;;;12.36;49.20;102055.65;106878;1267;25500;-56
2024/03/10 07:54:05;;;;;;;10.00;6.20;;;;;;;12.42;48.94;102055.60;106901;1267;25365;-56
2024/03/10 07:56:33;;;;;;;6.80;6.00;;;;;;;12.48;48.67;102053.45;106127;1267;1003098;-56
2024/03/10 07:59:00;;;;;;;7.20;5.90;;;;;;;12.52;48.41;102054.98;106944;1272;24197;-56
2024/03/10 08:01:28;;;;;;;6.10;5.30;;;;;;;12.56;48.43;102059.64;106480;1273;25463;-56
2024/03/10 08:03:55;;;;;;;7.20;6.00;;;;;;;12.62;48.31;102059.23;106935;1267;25377;-56
2024/03/10 08:06:22;;;;;;;8.10;6.10;;;;;;;12.69;48.20;102055.19;106759;1261;25341;-56
2024/03/10 08:08:52;;;;;;;5.90;5.30;;;;;;;12.75;48.17;102054.59;106906;1273;25447;-56
2024/03/10 08:11:21;;;;;;;6.30;5.60;;;;;;;12.82;48.00;102054.52;106863;1270;24509;-56
2024/03/10 08:13:49;;;;;;;5.90;5.30;;;;;;;12.86;47.88;102058.13;107078;1264;25355;-57
2024/03/10 08:16:17;;;;;;;6.20;5.60;;;;;;;12.91;47.90;102065.05;107062;1251;22664;-56
2024/03/10 08:18:44;;;;;;;6.70;6.00;;;;;;;12.95;47.89;102066.21;106999;1267;22550;-56
2024/03/10 08:21:15;;;;;;;5.90;5.30;;;;;;;12.98;47.73;102066.36;107058;1256;25344;-56
2024/03/10 08:23:42;;;;;;;6.60;5.90;;;;;;;12.99;47.70;102070.70;106953;1264;24201;-56
2024/03/10 08:26:12;;;;;;;5.40;4.90;;;;;;;12.83;48.17;102068.09;107128;1257;24043;-56
2024/03/10 08:28:40;;;;;;;6.00;5.40;;;;;;;12.83;48.33;102071.58;107140;1267;25417;-56
2024/03/10 08:31:07;;;;;;;6.20;5.60;;;;;;;13.06;47.73;102078.67;107081;1264;25360;-56
2024/03/10 08:33:34;;;;;;;6.20;5.60;;;;;;;13.13;47.72;102070.94;106984;1257;25428;-57
2024/03/10 08:36:01;;;;;;;6.50;5.90;;;;;;;13.17;47.86;102071.77;107119;1261;22528;-55
2024/03/10 08:38:28;;;;;;;7.60;6.80;;;;;;;13.13;48.14;102074.41;106895;1258;25393;-55
2024/03/10 08:40:57;;;;;;;6.60;5.90;;;;;;;13.17;48.21;102072.81;107032;1270;23902;-55
2024/03/10 08:43:24;;;;;;;6.80;6.10;;;;;;;13.12;48.20;102069.55;106834;1273;25369;-55
2024/03/10 08:45:52;;;;;;;7.50;6.40;;;;;;;13.35;47.69;102070.67;106782;1264;25356;-55
2024/03/10 08:48:19;;;;;;;8.00;6.40;;;;;;;13.44;47.39;102060.97;107099;1261;25351;-55
2024/03/10 08:50:46;;;;;;;7.30;6.60;;;;;;;13.51;47.33;102061.23;106986;1267;24313;-56
2024/03/10 08:53:13;;;;;;;7.10;6.40;;;;;;;13.56;47.37;102053.50;107108;1256;25357;-55
2024/03/10 08:55:41;;;;;;;6.70;6.10;;;;;;;13.60;47.30;102057.27;106830;1271;24223;-55
2024/03/10 08:58:08;;;;;;;7.80;6.70;;;;;;;13.62;47.21;102050.27;107049;1257;25356;-55
2024/03/10 09:00:38;;;;;;;8.50;6.50;;;;;;;13.64;47.04;102048.34;106760;1260;25366;-55
2024/03/10 09:03:05;;;;;;;7.70;6.60;;;;;;;13.64;47.10;102046.39;106809;1272;25380;-55
2024/03/10 09:05:32;;;;;;;7.30;6.60;;;;;;;13.65;47.16;102046.91;106898;1260;25536;-55
2024/03/10 09:07:59;;;;;;;8.10;7.20;;;;;;;13.66;47.22;102042.01;107068;1255;25462;-55
2024/03/10 09:10:27;;;;;;;8.00;7.20;;;;;;;13.68;47.30;102045.14;107094;1253;25341;-56
2024/03/10 09:13:10;;;;;;;7.40;6.70;;;;;;;13.72;47.32;102038.97;106054;1273;1003792;-56
2024/03/10 09:15:38;;;;;;;7.80;7.00;;;;;;;13.74;47.31;102040.85;106781;1259;25366;-55
2024/03/10 09:18:05;;;;;;;8.70;7.70;;;;;;;13.79;47.34;102042.35;107110;1257;25410;-55
2024/03/10 09:20:33;;;;;;;10.60;7.90;;;;;;;13.89;47.31;102042.55;107085;1251;25396;-55
2024/03/10 09:23:01;;;;;;;9.60;8.60;;;;;;;13.94;47.33;102037.92;107156;1267;25533;-56
2024/03/10 09:25:30;;;;;;;9.20;8.00;;;;;;;13.99;47.46;102037.17;107092;1251;25443;-55
2024/03/10 09:27:57;;;;;;;10.10;8.60;;;;;;;14.04;47.58;102036.22;107115;1252;25351;-56
2024/03/10 09:30:25;;;;;;;9.00;8.00;;;;;;;14.07;47.44;102031.27;107074;1267;25437;-55
2024/03/10 09:32:54;;;;;;;9.00;7.60;;;;;;;14.14;47.39;102031.33;107077;1267;22548;-56
2024/03/10 09:35:24;;;;;;;7.90;7.10;;;;;;;14.11;47.45;102032.80;107102;1260;23191;-56
2024/03/10 09:37:51;;;;;;;8.50;7.60;;;;;;;14.14;47.46;102029.60;106328;1272;1003643;-56
2024/03/10 09:40:18;;;;;;;9.20;7.90;;;;;;;14.20;47.43;102027.58;107022;1257;25424;-55
2024/03/10 09:42:47;;;;;;;8.70;7.80;;;;;;;14.25;47.34;102032.21;106887;1267;25360;-56
2024/03/10 09:45:19;;;;;;;8.10;7.30;;;;;;;14.28;47.25;102030.77;107090;1267;23919;-55
2024/03/10 09:47:50;;;;;;;9.10;8.10;;;;;;;14.33;47.24;102032.44;107140;1266;25500;-56
2024/03/10 09:50:23;;;;;;;9.10;7.40;;;;;;;14.37;47.14;102029.59;106978;1272;25500;-55
2024/03/10 09:52:55;;;;;;;8.50;7.60;;;;;;;14.38;47.14;102031.33;107005;1267;25573;-55
2024/03/10 09:55:22;;;;;;;9.60;8.20;;;;;;;14.42;47.17;102027.93;107084;1267;22529;-55
2024/03/10 09:57:56;;;;;;;9.60;8.60;;;;;;;14.45;47.18;102030.66;107093;1267;25424;-55
2024/03/10 10:00:25;;;;;;;9.70;8.70;;;;;;;14.51;47.17;102029.34;107128;1257;25367;-55
2024/03/10 10:02:58;;;;;;;9.30;7.90;;;;;;;14.54;47.09;102026.66;107113;1267;22540;-55
2024/03/10 10:05:29;;;;;;;9.20;7.80;;;;;;;14.57;47.00;102028.52;106790;1272;22534;-55
2024/03/10 10:07:57;;;;;;;9.30;8.30;;;;;;;14.60;46.94;102027.25;107078;1267;25336;-55
2024/03/10 10:10:26;;;;;;;9.30;8.30;;;;;;;14.63;46.93;102031.21;107024;1267;25354;-55
2024/03/10 10:12:57;;;;;;;8.80;7.80;;;;;;;14.66;46.85;102027.66;107038;1267;25351;-55
2024/03/10 10:15:26;;;;;;;9.00;8.10;;;;;;;14.68;46.74;102025.19;107104;1263;25359;-56
2024/03/10 10:17:57;;;;;;;12.30;8.90;;;;;;;14.68;46.69;102019.42;106994;1257;25366;-56
2024/03/10 10:20:25;;;;;;;10.20;9.10;;;;;;;14.67;46.75;102015.24;106876;1257;25351;-56
2024/03/10 10:22:53;;;;;;;10.50;9.30;;;;;;;14.64;46.84;102016.52;106762;1270;25386;-55
2024/03/10 10:25:22;;;;;;;11.40;8.80;;;;;;;14.63;47.00;102015.33;107027;1254;25495;-55
2024/03/10 10:27:50;;;;;;;11.80;10.20;;;;;;;14.62;47.11;102013.95;107132;1272;22527;-55
2024/03/10 10:30:19;;;;;;;11.20;10.00;;;;;;;14.61;47.10;102008.71;107110;1267;25379;-55
2024/03/10 10:32:47;;;;;;;10.20;9.20;;;;;;;14.61;47.12;102005.93;107087;1264;25438;-55
2024/03/10 10:35:16;;;;;;;14.50;10.30;;;;;;;14.61;47.21;102005.05;106369;1267;1003160;-55
2024/03/10 10:37:46;;;;;;;11.50;9.00;;;;;;;14.62;47.26;102003.13;106583;1273;22547;-56
2024/03/10 10:40:14;;;;;;;12.60;10.10;;;;;;;14.64;47.20;101998.54;107104;1268;25400;-55
2024/03/10 10:42:41;;;;;;;10.80;9.70;;;;;;;14.66;47.20;101997.27;107029;1267;25388;-56
2024/03/10 10:45:27;;;;;;;13.10;11.00;;;;;;;14.70;47.24;101992.84;106360;1253;1003361;-56
2024/03/10 10:47:54;;;;;;;11.70;10.30;;;;;;;14.72;47.27;101991.76;106125;1267;1003327;-56
2024/03/10 10:50:31;;;;;;;11.70;9.80;;;;;;;14.74;47.39;101986.12;106855;1269;23868;-55
2024/03/10 10:52:59;;;;;;;12.40;10.50;;;;;;;14.76;47.38;101979.97;106296;1254;1002542;-55
2024/03/10 10:55:27;;;;;;;13.20;10.80;;;;;;;14.79;47.49;101977.46;107034;1262;22528;-56
2024/03/10 10:58:11;;;;;;;11.60;10.40;;;;;;;14.83;47.45;101974.95;106873;1267;22532;-56
2024/03/10 11:00:42;;;;;;;13.50;10.60;;;;;;;14.85;47.41;101968.45;106733;1273;25414;-55
2024/03/10 11:03:14;;;;;;;12.20;10.50;;;;;;;14.87;47.61;101966.31;107118;1268;25422;-56
2024/03/10 11:06:15;;;;;;;13.10;11.20;;;;;;;14.91;47.61;101968.48;106990;1258;25320;-56
2024/03/10 11:08:45;;;;;;;13.40;10.80;;;;;;;14.99;47.66;101962.23;106388;1267;1003888;-56
2024/03/10 11:11:47;;;;;;;14.70;12.10;;;;;;;15.08;47.67;101959.73;107048;1253;25456;-55
2024/03/10 11:14:22;;;;;;;13.60;11.30;;;;;;;15.16;47.71;101959.75;107113;1272;24253;-56
2024/03/10 11:16:49;;;;;;;13.90;12.10;;;;;;;15.23;47.74;101956.79;107017;1267;22668;-56
2024/03/10 11:19:27;;;;;;;14.00;11.50;;;;;;;15.30;47.64;101952.80;106878;1259;25358;-55
2024/03/10 11:21:55;;;;;;;14.20;12.20;;;;;;;15.31;47.74;101948.77;106884;1267;25389;-55
2024/03/10 11:24:26;;;;;;;16.30;12.30;;;;;;;15.33;47.87;101942.92;106765;1269;25420;-55
2024/03/10 11:27:18;;;;;;;13.90;12.30;;;;;;;15.39;47.86;101936.69;106818;1272;22579;-55
2024/03/10 11:29:45;;;;;;;16.80;13.50;;;;;;;15.45;47.88;101936.23;107026;1268;25404;-56
2024/03/10 11:32:34;;;;;;;17.20;13.80;;;;;;;15.50;47.92;101932.44;106878;1270;25536;-56
2024/03/10 11:35:06;;;;;;;19.40;12.90;;;;;;;15.56;47.94;101934.03;107036;1267;22647;-56
2024/03/10 11:37:37;;;;;;;15.80;13.40;;;;;;;15.61;47.90;101936.89;107041;1267;22616;-55
2024/03/10 11:40:05;;;;;;;19.20;14.30;;;;;;;15.65;47.90;101936.44;106703;1272;25428;-55